Time;durP1;ratioP1;P1;durP2;ratioP2;P2;SDS_P1;SDS_P2;PMS_P1;PMS_P2;Temp;Humidity;BMP_temperature;BMP_pressure;BME280_temperature;BME280_humidity;BME280_pressure;Samples;Min_cycle;Max_cycle;Signal;HPM_P1;HPM_P2
2021/05/05 00:01:57;;;;;;;4.75;2.85;;;;;;;7.65;48.85;95939.20;1717936;83;21156;-60
2021/05/05 00:04:25;;;;;;;4.78;3.22;;;;;;;7.61;49.00;95941.62;1735380;81;21642;-59
2021/05/05 00:06:57;;;;;;;4.47;3.20;;;;;;;7.58;49.24;95947.81;1729542;81;26593;-59
2021/05/05 00:09:27;;;;;;;3.33;2.42;;;;;;;7.48;49.78;95947.64;1720123;82;21076;-60
2021/05/05 00:11:54;;;;;;;4.47;2.62;;;;;;;7.32;49.90;95940.58;1732471;81;22178;-60
2021/05/05 00:14:22;;;;;;;2.92;2.62;;;;;;;7.23;50.39;95943.30;1734684;81;22454;-59
2021/05/05 00:16:50;;;;;;;4.70;2.15;;;;;;;7.18;49.75;95931.99;1725421;81;21160;-60
2021/05/05 00:19:18;;;;;;;2.67;2.22;;;;;;;7.23;49.59;95927.00;1726493;81;21138;-59
2021/05/05 00:21:46;;;;;;;3.02;2.60;;;;;;;7.27;49.46;95927.98;1737114;81;21219;-59
2021/05/05 00:24:14;;;;;;;3.72;2.35;;;;;;;7.31;49.40;95927.31;1726968;81;21593;-59
2021/05/05 00:26:42;;;;;;;3.55;2.80;;;;;;;7.34;49.60;95922.76;1705062;82;21552;-59
2021/05/05 00:29:10;;;;;;;2.70;2.30;;;;;;;7.38;49.96;95927.23;1733253;81;21595;-59
2021/05/05 00:31:38;;;;;;;4.10;3.27;;;;;;;7.37;50.38;95925.61;1736734;81;21642;-59
2021/05/05 00:34:07;;;;;;;2.77;2.58;;;;;;;7.35;49.85;95926.16;1720057;82;21048;-59
2021/05/05 00:36:34;;;;;;;5.55;3.37;;;;;;;7.35;49.42;95920.99;1726026;81;21371;-58
2021/05/05 00:39:04;;;;;;;4.67;2.90;;;;;;;7.34;49.32;95921.94;1731181;81;21155;-60
2021/05/05 00:41:33;;;;;;;4.92;3.40;;;;;;;7.34;49.63;95925.81;1721889;81;21183;-59
2021/05/05 00:44:00;;;;;;;6.97;3.60;;;;;;;7.32;49.47;95927.20;1734467;81;21509;-59
2021/05/05 00:46:28;;;;;;;4.15;3.75;;;;;;;7.30;49.55;95926.94;1730922;81;21521;-58
2021/05/05 00:48:57;;;;;;;3.98;3.40;;;;;;;7.27;49.88;95933.15;1730211;81;21384;-58
2021/05/05 00:51:25;;;;;;;4.42;3.60;;;;;;;7.26;50.32;95932.77;1729496;81;21120;-59
2021/05/05 00:53:52;;;;;;;4.57;4.10;;;;;;;7.25;50.27;95931.59;1723057;81;21104;-59
2021/05/05 00:56:20;;;;;;;4.97;4.12;;;;;;;7.19;50.46;95923.81;1731474;81;21498;-59
2021/05/05 00:58:49;;;;;;;8.05;5.22;;;;;;;7.15;51.16;95919.77;1709527;82;21195;-58
2021/05/05 01:01:18;;;;;;;8.00;6.10;;;;;;;7.12;50.79;95916.10;1722357;81;21501;-58
2021/05/05 01:03:46;;;;;;;8.93;5.10;;;;;;;7.09;50.76;95917.16;1727102;81;21171;-57
2021/05/05 01:06:15;;;;;;;5.95;5.25;;;;;;;7.10;51.13;95908.94;1731204;81;21654;-58
2021/05/05 01:08:43;;;;;;;5.37;4.83;;;;;;;7.12;50.83;95912.23;1725637;81;21136;-58
2021/05/05 01:11:11;;;;;;;4.60;4.10;;;;;;;7.11;50.86;95916.58;1721331;81;21595;-58
2021/05/05 01:13:42;;;;;;;3.42;2.95;;;;;;;7.13;50.85;95916.48;1730163;82;21205;-59
2021/05/05 01:16:13;;;;;;;3.10;2.80;;;;;;;7.14;50.56;95923.30;1737477;82;21108;-58
2021/05/05 01:18:42;;;;;;;6.78;4.67;;;;;;;7.17;50.39;95915.33;1750517;81;21112;-59
2021/05/05 01:21:11;;;;;;;7.17;4.00;;;;;;;7.23;50.22;95917.50;1728013;80;21595;-59
2021/05/05 01:23:39;;;;;;;6.58;3.62;;;;;;;7.37;49.84;95916.58;1737627;82;21501;-59
2021/05/05 01:26:08;;;;;;;5.78;4.45;;;;;;;7.49;49.80;95908.45;1736604;82;22306;-59
2021/05/05 01:28:40;;;;;;;8.20;5.35;;;;;;;7.49;49.95;95904.10;1742311;82;21510;-59
2021/05/05 01:31:13;;;;;;;6.37;4.05;;;;;;;7.43;49.83;95907.57;1747217;81;21504;-59
2021/05/05 01:33:42;;;;;;;5.08;3.47;;;;;;;7.34;49.57;95901.30;1735081;82;21151;-59
2021/05/05 01:36:12;;;;;;;5.40;3.72;;;;;;;7.27;49.61;95902.18;1721317;82;21465;-60
2021/05/05 01:38:40;;;;;;;4.42;3.45;;;;;;;7.20;50.03;95903.52;1720653;83;21382;-59
2021/05/05 01:41:07;;;;;;;5.35;3.75;;;;;;;7.14;50.25;95908.64;1727543;82;21492;-59
2021/05/05 01:43:35;;;;;;;7.00;5.03;;;;;;;7.07;51.11;95903.98;1736467;82;21076;-60
2021/05/05 01:46:04;;;;;;;6.37;5.78;;;;;;;6.98;50.99;95898.52;1749749;82;21147;-59
2021/05/05 01:48:32;;;;;;;7.55;5.90;;;;;;;6.92;51.17;95910.52;1749946;80;21139;-60
2021/05/05 01:51:00;;;;;;;7.20;4.87;;;;;;;6.87;51.75;95897.59;1718214;81;22777;-60
2021/05/05 01:53:30;;;;;;;7.20;4.87;;;;;;;6.85;52.33;95896.88;1759504;81;21076;-59
2021/05/05 01:55:58;;;;;;;5.80;4.40;;;;;;;6.84;52.03;95896.03;1748133;81;21067;-59
2021/05/05 01:58:26;;;;;;;5.03;4.37;;;;;;;6.86;52.79;95895.48;1743015;81;21068;-59
2021/05/05 02:00:55;;;;;;;8.45;5.17;;;;;;;6.86;52.86;95887.75;1745518;81;21119;-60
2021/05/05 02:03:25;;;;;;;5.47;4.42;;;;;;;6.87;52.46;95895.83;1757069;81;21154;-60
2021/05/05 02:05:57;;;;;;;5.78;3.98;;;;;;;6.90;52.61;95885.78;1758698;81;21103;-60
2021/05/05 02:08:44;;;;;;;6.53;4.50;;;;;;;6.99;51.80;95889.86;1798540;79;26565;-60
2021/05/05 02:11:12;;;;;;;5.22;4.10;;;;;;;6.98;53.04;95886.91;1788760;80;20910;-60
2021/05/05 02:13:41;;;;;;;5.75;4.35;;;;;;;6.95;52.81;95890.98;1741190;81;21311;-60
2021/05/05 02:16:09;;;;;;;7.45;4.42;;;;;;;6.89;52.49;95897.02;1767281;80;21129;-60
2021/05/05 02:18:38;;;;;;;5.17;3.67;;;;;;;6.80;52.83;95903.62;1761094;80;21555;-60
2021/05/05 02:21:13;;;;;;;4.58;3.72;;;;;;;6.75;52.67;95900.05;1667791;79;21054;-60
2021/05/05 02:23:41;;;;;;;3.92;3.30;;;;;;;6.75;52.62;95904.39;1644496;86;21566;-60
2021/05/05 02:26:09;;;;;;;4.30;2.87;;;;;;;6.76;52.11;95902.16;1712689;83;21398;-59
2021/05/05 02:28:38;;;;;;;3.80;2.60;;;;;;;6.80;52.11;95903.62;1710360;83;21118;-60
2021/05/05 02:31:24;;;;;;;2.45;2.25;;;;;;;6.90;52.14;95899.49;1713476;83;21575;-60
2021/05/05 02:33:53;;;;;;;2.50;2.30;;;;;;;7.00;51.20;95900.52;1685164;83;24036;-60
2021/05/05 02:36:21;;;;;;;3.37;2.67;;;;;;;7.09;51.39;95912.00;1708771;83;21480;-60
2021/05/05 02:38:51;;;;;;;2.58;2.37;;;;;;;7.03;51.80;95904.66;1676068;83;21214;-60
2021/05/05 02:41:20;;;;;;;2.98;2.65;;;;;;;6.89;51.96;95907.33;1656165;85;21110;-60
2021/05/05 02:43:48;;;;;;;3.02;2.77;;;;;;;6.78;52.01;95908.06;1688015;83;21074;-60
2021/05/05 02:46:16;;;;;;;5.17;2.62;;;;;;;6.70;52.88;95912.90;1653155;86;21184;-60
2021/05/05 02:48:44;;;;;;;4.58;2.55;;;;;;;6.58;53.01;95910.20;1655389;86;21170;-60
2021/05/05 02:51:12;;;;;;;3.25;2.67;;;;;;;6.51;53.08;95911.97;1629146;88;21333;-59
2021/05/05 02:53:41;;;;;;;5.40;2.83;;;;;;;6.49;53.07;95911.26;1634181;86;26238;-59
2021/05/05 02:56:10;;;;;;;;;;;;;;;6.50;53.07;95915.02;1634322;87;21249;-58
2021/05/05 02:58:38;;;;;;;5.45;3.45;;;;;;;6.51;52.27;95914.08;1647045;86;20228;-59
2021/05/05 03:01:05;;;;;;;4.25;3.33;;;;;;;6.55;52.44;95916.02;1683512;83;21161;-59
2021/05/05 03:03:33;;;;;;;5.45;2.70;;;;;;;6.58;52.34;95911.48;1671893;83;21427;-60
2021/05/05 03:06:01;;;;;;;6.93;2.70;;;;;;;6.64;52.05;95917.98;1640605;85;21098;-60
2021/05/05 03:08:29;;;;;;;5.60;3.10;;;;;;;6.66;52.22;95917.88;1611686;87;21171;-60
2021/05/05 03:10:56;;;;;;;2.72;2.52;;;;;;;6.66;52.50;95917.44;1631463;87;21197;-60
2021/05/05 03:13:26;;;;;;;3.02;2.25;;;;;;;6.65;52.33;95914.95;1646756;85;21169;-59
2021/05/05 03:15:54;;;;;;;4.20;2.33;;;;;;;6.67;52.33;95916.96;1640212;85;21598;-60
2021/05/05 03:18:22;;;;;;;4.92;2.70;;;;;;;6.70;51.88;95913.72;1634232;85;21916;-60
2021/05/05 03:20:50;;;;;;;2.52;2.33;;;;;;;6.79;52.21;95923.44;1637252;85;21126;-59
2021/05/05 03:23:17;;;;;;;2.77;2.40;;;;;;;6.91;52.07;95917.92;1676875;84;21122;-60
2021/05/05 03:25:45;;;;;;;2.70;2.50;;;;;;;7.04;51.79;95920.95;1669374;85;21190;-60
2021/05/05 03:28:13;;;;;;;3.85;2.10;;;;;;;7.18;51.63;95923.44;1671372;83;22292;-60
2021/05/05 03:30:41;;;;;;;3.33;2.57;;;;;;;7.30;51.45;95919.20;1679981;83;21092;-60
2021/05/05 03:33:10;;;;;;;2.70;2.50;;;;;;;7.37;50.45;95908.83;1668762;85;21424;-60
2021/05/05 03:35:37;;;;;;;6.22;2.90;;;;;;;7.37;50.45;95908.83;1676332;83;21591;-60
2021/05/05 03:38:05;;;;;;;4.12;3.47;;;;;;;7.40;51.00;95904.75;1643870;85;21210;-60
2021/05/05 03:40:33;;;;;;;4.10;3.08;;;;;;;7.51;49.90;95906.58;1643294;85;21413;-60
2021/05/05 03:43:01;;;;;;;4.90;3.02;;;;;;;7.84;49.99;95908.55;1664398;85;21171;-60
2021/05/05 03:45:28;;;;;;;5.97;3.52;;;;;;;8.16;49.13;95904.16;1680770;84;21641;-59
2021/05/05 03:47:57;;;;;;;4.90;4.00;;;;;;;8.53;48.08;95910.56;1682375;83;21213;-60
2021/05/05 03:50:24;;;;;;;5.75;3.55;;;;;;;8.99;47.82;95909.73;1674694;83;21900;-59
2021/05/05 03:52:52;;;;;;;19.52;4.45;;;;;;;9.66;47.27;95906.83;1669190;84;21469;-60
2021/05/05 03:55:21;;;;;;;38.70;5.03;;;;;;;10.36;47.13;95906.58;1683464;83;21533;-59
2021/05/05 03:57:49;;;;;;;34.80;5.50;;;;;;;11.15;45.52;95907.46;1648635;86;21107;-59
2021/05/05 04:00:18;;;;;;;109.70;8.03;;;;;;;11.83;44.13;95909.54;1629939;86;21585;-59
2021/05/05 04:02:46;;;;;;;53.02;6.37;;;;;;;12.48;42.80;95901.66;1655728;86;21166;-58
2021/05/05 04:05:15;;;;;;;18.05;5.78;;;;;;;12.88;41.07;95897.24;1646111;86;21438;-58
2021/05/05 04:07:43;;;;;;;14.68;5.40;;;;;;;12.88;39.40;95898.55;1644543;86;21196;-58
2021/05/05 04:10:12;;;;;;;11.63;5.83;;;;;;;12.47;39.80;95896.09;1706884;83;21078;-58
2021/05/05 04:12:40;;;;;;;10.75;5.78;;;;;;;12.33;40.66;95896.04;1701801;84;22222;-59
2021/05/05 04:15:26;;;;;;;10.28;5.50;;;;;;;12.70;40.57;95901.84;1676000;85;21131;-58
2021/05/05 04:18:12;;;;;;;7.50;4.20;;;;;;;13.12;39.59;95890.25;1674985;83;21173;-58
2021/05/05 04:21:00;;;;;;;8.30;4.10;;;;;;;13.19;39.03;95888.74;1694527;83;21562;-57
2021/05/05 04:23:46;;;;;;;5.53;3.67;;;;;;;12.91;39.66;95888.31;1682356;83;21187;-57
2021/05/05 04:26:18;;;;;;;7.60;3.95;;;;;;;12.75;40.12;95881.10;1684172;83;21137;-58
2021/05/05 04:28:46;;;;;;;6.85;3.98;;;;;;;12.92;39.60;95885.58;1684936;85;21563;-57
2021/05/05 04:31:14;;;;;;;6.67;4.50;;;;;;;13.34;39.57;95893.50;1685067;83;21310;-57
2021/05/05 04:33:45;;;;;;;7.78;4.30;;;;;;;14.03;39.28;95892.25;1684120;83;21942;-57
2021/05/05 04:36:15;;;;;;;6.12;3.92;;;;;;;14.84;38.32;95899.70;1681528;83;21901;-58
2021/05/05 04:38:42;;;;;;;7.33;2.90;;;;;;;15.56;37.47;95893.77;1690537;83;21074;-58
2021/05/05 04:41:11;;;;;;;6.08;2.85;;;;;;;16.07;36.62;95898.23;1683626;83;21518;-58
2021/05/05 04:43:38;;;;;;;4.47;2.20;;;;;;;16.38;35.57;95899.77;1711487;83;21501;-58
2021/05/05 04:46:06;;;;;;;7.62;2.55;;;;;;;16.53;34.76;95885.08;1637005;86;21179;-58
2021/05/05 04:48:34;;;;;;;8.28;2.52;;;;;;;16.40;34.98;95887.83;1644967;87;21166;-59
2021/05/05 04:51:04;;;;;;;6.12;2.08;;;;;;;15.99;35.86;95884.66;1644805;85;21201;-57
2021/05/05 04:53:31;;;;;;;8.20;2.17;;;;;;;15.66;35.78;95877.97;1685395;83;21504;-57
2021/05/05 04:55:59;;;;;;;4.20;2.15;;;;;;;15.34;36.22;95874.70;1691133;83;21216;-57
2021/05/05 04:58:27;;;;;;;6.50;2.30;;;;;;;15.02;37.25;95885.30;1660199;86;21166;-58
2021/05/05 05:00:55;;;;;;;5.12;3.00;;;;;;;14.87;37.83;95880.63;1675150;85;21140;-57
2021/05/05 05:03:22;;;;;;;7.12;2.72;;;;;;;14.73;37.45;95873.33;1706202;83;21174;-58
2021/05/05 05:05:50;;;;;;;6.30;2.50;;;;;;;14.63;37.21;95878.63;1696348;83;21096;-58
2021/05/05 05:08:18;;;;;;;320.00;223.68;;;;;;;14.85;37.90;95887.80;1688316;83;21411;-57
2021/05/05 05:10:45;;;;;;;43.50;23.12;;;;;;;15.47;37.75;95879.02;1696256;83;21566;-53
2021/05/05 05:13:16;;;;;;;11.97;6.03;;;;;;;16.12;36.10;95882.89;1689554;83;21149;-59
2021/05/05 05:15:50;;;;;;;6.05;2.80;;;;;;;16.48;35.22;95883.44;1681776;84;21184;-57
2021/05/05 05:18:19;;;;;;;5.20;2.67;;;;;;;16.55;33.97;95877.06;1686526;84;21128;-57
2021/05/05 05:20:47;;;;;;;;;;;;;;;16.50;33.51;95879.35;1688441;84;22294;-57
2021/05/05 05:23:14;;;;;;;5.97;2.33;;;;;;;16.41;33.85;95873.77;1692514;83;20241;-56
2021/05/05 05:25:43;;;;;;;11.50;3.05;;;;;;;16.38;33.80;95871.81;1695083;83;21677;-56
2021/05/05 05:28:10;;;;;;;5.25;3.15;;;;;;;16.45;33.53;95867.23;1649741;85;21117;-56
2021/05/05 05:30:38;;;;;;;33.80;5.75;;;;;;;16.54;34.34;95869.67;1669754;85;21113;-54
2021/05/05 05:33:05;;;;;;;86.72;9.73;;;;;;;16.60;34.65;95863.48;1668246;86;22390;-56
2021/05/05 05:35:33;;;;;;;73.02;8.50;;;;;;;16.71;34.21;95865.75;1669479;84;21223;-55
2021/05/05 05:38:00;;;;;;;37.73;4.17;;;;;;;16.90;33.84;95864.63;1701278;84;21595;-55
2021/05/05 05:40:28;;;;;;;28.30;4.22;;;;;;;17.06;32.27;95862.49;1690979;84;21116;-56
2021/05/05 05:42:56;;;;;;;10.45;4.72;;;;;;;17.18;32.09;95863.77;1697524;84;21121;-56
2021/05/05 05:45:24;;;;;;;23.67;5.87;;;;;;;17.70;32.20;95861.63;1708138;84;21216;-56
2021/05/05 05:47:52;;;;;;;10.95;4.10;;;;;;;18.25;31.33;95865.17;1691144;83;21502;-55
2021/05/05 05:50:20;;;;;;;12.35;3.45;;;;;;;18.89;31.28;95863.06;1686217;83;21510;-55
2021/05/05 05:52:48;;;;;;;4.50;2.90;;;;;;;19.50;30.04;95851.60;1688479;83;21626;-53
2021/05/05 05:55:17;;;;;;;10.82;4.10;;;;;;;20.04;28.79;95848.64;1663267;86;21158;-55
2021/05/05 05:57:47;;;;;;;10.30;4.08;;;;;;;20.28;29.14;95843.22;1663186;86;22338;-61
2021/05/05 06:00:18;;;;;;;7.33;3.77;;;;;;;20.69;28.93;95844.77;1663075;86;21153;-55
2021/05/05 06:02:45;;;;;;;8.28;3.67;;;;;;;21.30;27.55;95846.02;1687602;83;21194;-57
2021/05/05 06:05:13;;;;;;;6.13;3.80;;;;;;;21.91;26.88;95838.73;1688716;83;21218;-56
2021/05/05 06:07:41;;;;;;;5.67;3.50;;;;;;;22.71;24.22;95835.45;1688502;84;21133;-56
2021/05/05 06:10:11;;;;;;;8.30;3.40;;;;;;;23.24;24.88;95839.92;1693362;83;21459;-55
2021/05/05 06:12:39;;;;;;;7.15;4.80;;;;;;;23.73;23.25;95838.57;1694271;83;21594;-56
2021/05/05 06:15:09;;;;;;;11.15;5.85;;;;;;;24.04;22.86;95832.55;1688564;83;21164;-54
2021/05/05 06:17:37;;;;;;;5.90;4.60;;;;;;;24.17;22.37;95835.66;1695035;83;21165;-56
2021/05/05 06:20:06;;;;;;;8.70;4.83;;;;;;;24.10;22.42;95830.11;1696782;83;22424;-56
2021/05/05 06:22:34;;;;;;;10.38;5.55;;;;;;;24.01;22.57;95823.73;1706397;83;21457;-55
2021/05/05 06:25:03;;;;;;;10.43;5.10;;;;;;;23.97;22.76;95825.69;1694943;83;21178;-56
2021/05/05 06:27:30;;;;;;;15.35;5.40;;;;;;;23.93;22.30;95828.44;1686968;83;21102;-56
2021/05/05 06:29:58;;;;;;;12.70;5.42;;;;;;;23.70;22.56;95827.91;1684686;84;21086;-56
2021/05/05 06:32:26;;;;;;;13.80;5.25;;;;;;;23.73;22.83;95819.23;1684478;83;21248;-56
2021/05/05 06:34:54;;;;;;;6.93;3.80;;;;;;;23.74;21.84;95828.29;1680823;85;21400;-55
2021/05/05 06:37:22;;;;;;;7.40;3.67;;;;;;;22.89;22.73;95821.10;1679778;85;21633;-61
2021/05/05 06:39:50;;;;;;;3.85;2.80;;;;;;;22.44;23.69;95804.23;1687692;83;21567;-55
2021/05/05 06:42:20;;;;;;;10.58;2.90;;;;;;;22.29;24.00;95813.16;1714416;83;21085;-54
2021/05/05 06:44:48;;;;;;;3.33;2.52;;;;;;;22.56;23.62;95814.50;1676392;83;21208;-55
2021/05/05 06:47:16;;;;;;;4.83;2.55;;;;;;;22.71;23.58;95806.36;1681568;83;22348;-55
2021/05/05 06:49:44;;;;;;;3.17;2.37;;;;;;;22.43;23.60;95804.72;1685897;85;21142;-55
2021/05/05 06:52:11;;;;;;;7.28;2.20;;;;;;;22.20;23.94;95786.58;1688105;83;21071;-56
2021/05/05 06:54:40;;;;;;;9.78;2.80;;;;;;;22.23;23.90;95785.66;1680425;85;21108;-55
2021/05/05 06:57:08;;;;;;;6.42;2.35;;;;;;;22.38;23.84;95777.57;1680393;85;21138;-55
2021/05/05 06:59:35;;;;;;;11.38;2.40;;;;;;;22.52;23.77;95781.57;1625306;87;21239;-54
2021/05/05 07:02:03;;;;;;;4.15;2.45;;;;;;;22.31;23.58;95762.75;1645693;85;21227;-56
2021/05/05 07:04:32;;;;;;;4.58;2.42;;;;;;;21.94;23.88;95767.03;1652169;85;21095;-56
2021/05/05 07:07:00;;;;;;;6.37;2.60;;;;;;;21.68;24.51;95759.34;1672945;85;21111;-56
2021/05/05 07:09:31;;;;;;;3.10;2.45;;;;;;;21.84;24.54;95763.45;1672308;85;21111;-55
2021/05/05 07:11:59;;;;;;;5.53;2.40;;;;;;;22.11;24.51;95763.50;1673100;85;21531;-56
2021/05/05 07:14:27;;;;;;;5.03;2.65;;;;;;;22.35;24.01;95757.34;1672970;85;21220;-56
2021/05/05 07:16:56;;;;;;;10.18;2.95;;;;;;;22.56;24.73;95762.95;1672881;85;21165;-57
2021/05/05 07:19:25;;;;;;;7.55;2.90;;;;;;;22.75;24.10;95766.62;1667948;85;26714;-56
2021/05/05 07:21:52;;;;;;;6.37;2.37;;;;;;;22.88;24.28;95756.50;1676621;85;21491;-56
2021/05/05 07:24:20;;;;;;;4.57;2.30;;;;;;;23.30;23.77;95759.19;1672893;85;21226;-56
2021/05/05 07:26:48;;;;;;;3.22;2.20;;;;;;;23.68;23.20;95747.86;1651172;85;21107;-57
2021/05/05 07:29:18;;;;;;;2.92;1.90;;;;;;;23.92;21.30;95743.39;1672603;85;21162;-55
2021/05/05 07:31:47;;;;;;;3.35;2.60;;;;;;;23.40;22.34;95738.89;1672750;85;21146;-56
2021/05/05 07:34:16;;;;;;;2.87;2.58;;;;;;;22.77;22.16;95732.84;1647656;85;21143;-57
2021/05/05 07:36:46;;;;;;;4.83;2.70;;;;;;;22.29;23.49;95731.76;1628918;88;21252;-56
2021/05/05 07:39:31;;;;;;;3.77;2.45;;;;;;;21.96;23.13;95733.30;1628758;87;21237;-56
2021/05/05 07:45:08;;;;;;;4.03;2.60;;;;;;;21.57;24.21;95732.70;1704371;84;21863;-56
2021/05/05 07:50:00;;;;;;;4.47;2.55;;;;;;;22.42;24.25;95706.12;1888987;76;21799;-55
2021/05/05 07:52:28;;;;;;;4.03;2.20;;;;;;;22.69;23.97;95705.29;1860972;77;21044;-56
2021/05/05 07:54:56;;;;;;;4.47;2.40;;;;;;;22.88;23.23;95716.34;1861182;77;22276;-56
2021/05/05 07:57:23;;;;;;;4.50;2.52;;;;;;;23.02;23.49;95709.69;1827992;77;21005;-55
2021/05/05 07:59:50;;;;;;;3.22;2.80;;;;;;;23.28;23.39;95710.95;1860519;77;21013;-56
2021/05/05 08:02:17;;;;;;;4.25;2.65;;;;;;;23.62;23.21;95702.84;1856724;77;20926;-56
2021/05/05 08:04:49;;;;;;;9.93;2.12;;;;;;;23.97;22.92;95703.81;1827367;78;21445;-55
2021/05/05 08:07:21;;;;;;;4.17;2.27;;;;;;;24.23;22.65;95704.94;1827346;78;22292;-55
2021/05/05 08:09:51;;;;;;;6.95;2.65;;;;;;;24.14;22.16;95697.47;1826584;78;21572;-55
2021/05/05 08:12:19;;;;;;;6.62;3.05;;;;;;;23.78;21.77;95694.92;1827341;78;21502;-54
2021/05/05 08:14:51;;;;;;;4.03;2.50;;;;;;;22.96;22.55;95699.41;1827160;78;21086;-55
2021/05/05 08:17:19;;;;;;;4.03;2.70;;;;;;;22.39;24.02;95704.41;1833834;77;21049;-55
2021/05/05 08:19:48;;;;;;;3.25;2.50;;;;;;;22.27;24.23;95698.90;1860920;77;22449;-56
2021/05/05 08:22:17;;;;;;;6.30;3.00;;;;;;;22.42;24.70;95702.16;1860804;77;21080;-56
2021/05/05 08:24:44;;;;;;;6.13;2.67;;;;;;;22.91;24.59;95700.06;1861146;77;21080;-55
2021/05/05 08:27:13;;;;;;;5.30;2.90;;;;;;;22.91;24.59;95700.06;1861104;77;21563;-56
2021/05/05 08:29:42;;;;;;;4.50;2.80;;;;;;;23.03;23.22;95684.88;1860905;77;21561;-56
2021/05/05 08:32:12;;;;;;;7.33;3.10;;;;;;;22.93;23.40;95690.08;1860003;77;21380;-56
2021/05/05 08:34:41;;;;;;;4.80;2.42;;;;;;;22.82;23.77;95694.69;1850639;77;21537;-55
2021/05/05 08:37:09;;;;;;;6.78;2.58;;;;;;;22.66;23.37;95689.31;1827389;78;21081;-55
2021/05/05 08:39:37;;;;;;;5.78;2.40;;;;;;;22.28;24.12;95699.19;1827172;78;21021;-55
2021/05/05 08:42:05;;;;;;;3.05;2.58;;;;;;;22.03;23.97;95691.86;1827369;78;21509;-55
2021/05/05 08:44:35;;;;;;;3.02;2.35;;;;;;;21.95;24.50;95686.77;1827306;78;21190;-55
2021/05/05 08:47:03;;;;;;;4.00;2.70;;;;;;;22.07;24.06;95690.94;1827515;77;21088;-55
2021/05/05 08:49:32;;;;;;;9.98;3.65;;;;;;;22.09;24.46;95685.45;1818086;78;21144;-56
2021/05/05 08:52:01;;;;;;;5.92;2.50;;;;;;;22.49;25.44;95688.14;1826480;77;21124;-55
2021/05/05 08:54:29;;;;;;;5.20;2.22;;;;;;;23.01;23.63;95676.31;1819871;77;21033;-55
2021/05/05 08:56:57;;;;;;;3.80;2.40;;;;;;;22.74;23.92;95678.52;1847583;77;21208;-55
2021/05/05 08:59:28;;;;;;;3.12;2.67;;;;;;;22.74;23.92;95678.52;1819333;77;21052;-55
2021/05/05 09:01:56;;;;;;;3.10;2.40;;;;;;;22.60;24.40;95669.81;1846781;77;20914;-55
2021/05/05 09:04:24;;;;;;;3.95;2.80;;;;;;;22.71;24.30;95659.62;1814702;77;21050;-56
2021/05/05 09:06:58;;;;;;;3.98;2.40;;;;;;;22.82;23.53;95665.59;1813601;79;21045;-55
2021/05/05 09:09:44;;;;;;;4.62;2.80;;;;;;;22.51;22.77;95667.59;1813553;79;21191;-55
2021/05/05 09:12:23;;;;;;;4.83;2.90;;;;;;;22.03;23.88;95666.77;1813626;78;21561;-55
2021/05/05 09:14:59;;;;;;;3.75;2.52;;;;;;;21.87;24.72;95664.03;1813641;79;20973;-55
2021/05/05 09:17:34;;;;;;;4.35;2.47;;;;;;;22.19;25.08;95659.47;1814908;78;21529;-55
2021/05/05 09:20:12;;;;;;;6.50;2.90;;;;;;;22.24;24.16;95656.51;1813616;78;21136;-55
2021/05/05 09:22:55;;;;;;;5.22;2.90;;;;;;;22.26;24.62;95648.37;1813730;78;21565;-55
2021/05/05 09:25:26;;;;;;;3.60;2.92;;;;;;;22.21;23.87;95656.11;1841064;77;20958;-55
2021/05/05 09:28:11;;;;;;;3.20;2.90;;;;;;;21.87;24.10;95664.52;1846666;77;21109;-56
2021/05/05 09:30:45;;;;;;;4.05;3.37;;;;;;;21.66;24.99;95662.38;1846838;77;20923;-55
2021/05/05 09:33:26;;;;;;;7.28;3.60;;;;;;;21.67;24.20;95645.50;1830378;77;21136;-55
2021/05/05 09:35:57;;;;;;;3.95;3.10;;;;;;;21.57;24.86;95648.24;1823472;77;21189;-55
2021/05/05 09:38:50;;;;;;;4.05;3.15;;;;;;;21.69;25.08;95651.91;1824963;77;21144;-55
2021/05/05 09:41:22;;;;;;;5.33;3.20;;;;;;;21.93;24.85;95654.48;1813646;78;21092;-55
2021/05/05 09:43:50;;;;;;;5.22;3.05;;;;;;;22.16;24.92;95639.55;1813534;78;21156;-55
2021/05/05 09:49:40;;;;;;;4.55;3.12;;;;;;;22.14;24.04;95633.66;1777830;79;21939;-55
2021/05/05 09:52:18;;;;;;;3.85;3.45;;;;;;;21.95;24.01;95648.48;1761186;80;21173;-55
2021/05/05 09:55:02;;;;;;;5.03;3.35;;;;;;;21.79;24.90;95639.14;1804500;78;21204;-55
2021/05/05 09:57:33;;;;;;;7.42;3.87;;;;;;;21.92;24.78;95630.91;1817386;78;21078;-55
2021/05/05 10:00:14;;;;;;;9.45;3.02;;;;;;;22.14;24.67;95622.26;1759554;81;21089;-55
2021/05/05 10:02:49;;;;;;;5.05;3.62;;;;;;;22.11;24.34;95624.02;1732391;80;21486;-55
2021/05/05 10:05:23;;;;;;;4.28;3.20;;;;;;;21.79;24.72;95621.98;1735007;81;21096;-55
2021/05/05 10:08:00;;;;;;;5.70;3.58;;;;;;;21.73;24.75;95616.19;1756015;81;21418;-55
2021/05/05 10:10:32;;;;;;;4.05;3.65;;;;;;;21.72;24.59;95621.14;1725905;82;21007;-55
2021/05/05 10:13:04;;;;;;;3.60;3.30;;;;;;;21.59;24.82;95611.37;1725966;83;21608;-55
2021/05/05 10:18:11;;;;;;;7.75;3.37;;;;;;;21.33;24.92;95606.35;1872818;75;22756;-56
2021/05/05 10:20:43;;;;;;;4.62;3.83;;;;;;;21.06;25.41;95602.81;1841807;77;21456;-56
2021/05/05 10:23:10;;;;;;;5.95;3.70;;;;;;;20.86;26.01;95605.90;1812239;77;21315;-57
2021/05/05 10:25:42;;;;;;;7.22;3.62;;;;;;;20.61;25.71;95601.09;1841557;77;21066;-55
2021/05/05 10:28:09;;;;;;;6.45;4.12;;;;;;;20.38;26.54;95606.13;1841109;78;21157;-55
2021/05/05 10:30:37;;;;;;;3.95;3.27;;;;;;;20.36;26.73;95608.16;1839801;78;21039;-56
2021/05/05 10:33:13;;;;;;;6.83;3.30;;;;;;;20.40;26.69;95604.11;1764036;79;21150;-56
2021/05/05 10:35:37;;;;;;;4.83;4.33;;;;;;;20.43;26.48;95601.60;1830717;77;21209;-55
2021/05/05 10:38:07;;;;;;;6.33;4.78;;;;;;;20.43;26.29;95599.45;1789734;79;21102;-55
2021/05/05 10:40:36;;;;;;;9.00;5.72;;;;;;;20.36;26.16;95600.73;1803408;79;21128;-54
2021/05/05 10:43:06;;;;;;;8.30;5.35;;;;;;;20.22;27.07;95599.84;1810989;78;21130;-55
2021/05/05 10:45:43;;;;;;;8.15;5.58;;;;;;;20.18;27.48;95599.42;1833071;77;21138;-56
2021/05/05 10:48:14;;;;;;;6.62;4.80;;;;;;;20.22;27.99;95600.66;1820874;78;21354;-56
2021/05/05 10:50:52;;;;;;;4.72;4.22;;;;;;;20.32;28.13;95606.90;1835038;78;21042;-56
2021/05/05 10:53:29;;;;;;;10.10;4.25;;;;;;;20.36;27.71;95596.78;1834394;77;21069;-55
2021/05/05 10:55:59;;;;;;;4.62;3.55;;;;;;;20.29;27.62;95594.63;1834272;78;21044;-56
2021/05/05 10:58:32;;;;;;;3.62;3.30;;;;;;;20.18;27.96;95598.11;1841505;78;21056;-55
2021/05/05 11:01:06;;;;;;;5.40;3.25;;;;;;;20.23;27.99;95598.34;1823182;78;21183;-55
2021/05/05 11:03:49;;;;;;;4.17;3.05;;;;;;;20.35;27.92;95593.86;1820944;78;21169;-55
2021/05/05 11:06:38;;;;;;;5.65;3.25;;;;;;;20.56;27.05;95596.91;1840995;78;21048;-54
2021/05/05 11:09:16;;;;;;;4.30;3.52;;;;;;;20.84;27.46;95586.80;1835989;77;21123;-55
2021/05/05 11:12:29;;;;;;;8.98;3.37;;;;;;;21.16;27.05;95591.09;1888472;75;22740;-55
2021/05/05 11:15:19;;;;;;;10.68;3.40;;;;;;;21.13;26.41;95595.75;1771545;80;21091;-56
2021/05/05 11:17:57;;;;;;;4.12;2.92;;;;;;;20.88;27.47;95584.91;1804407;79;21397;-56
2021/05/05 11:20:43;;;;;;;6.58;2.85;;;;;;;20.84;26.81;95587.64;1807033;79;21565;-55
2021/05/05 11:23:43;;;;;;;6.15;2.83;;;;;;;20.74;27.31;95589.80;1795179;78;21084;-55
2021/05/05 11:26:25;;;;;;;5.92;3.00;;;;;;;20.74;27.34;95581.89;1819423;78;21068;-56
2021/05/05 11:29:06;;;;;;;4.97;3.20;;;;;;;20.80;27.48;95584.27;1819451;78;20902;-56
2021/05/05 11:31:55;;;;;;;3.87;3.10;;;;;;;20.94;27.57;95579.36;1819349;77;22021;-56
2021/05/05 11:34:27;;;;;;;;;;;;;;;21.22;27.30;95579.23;1851249;77;20947;-56
2021/05/05 11:37:05;;;;;;;3.10;2.50;;;;;;;21.38;26.68;95576.73;1848486;77;20181;-56
2021/05/05 11:39:45;;;;;;;5.10;2.67;;;;;;;21.21;25.81;95567.05;1849830;77;21057;-56
2021/05/05 11:42:23;;;;;;;6.90;2.72;;;;;;;20.77;26.50;95574.44;1849763;77;21076;-56
2021/05/05 11:44:55;;;;;;;5.28;3.10;;;;;;;20.47;27.50;95564.63;1846850;77;21391;-56
2021/05/05 11:47:35;;;;;;;5.30;2.98;;;;;;;20.38;27.32;95568.45;1845438;77;21160;-56
2021/05/05 11:50:06;;;;;;;8.95;3.30;;;;;;;20.35;28.01;95563.05;1819060;77;21486;-55
2021/05/05 11:52:50;;;;;;;12.20;3.47;;;;;;;20.40;27.50;95568.55;1780489;80;21057;-56
2021/05/05 11:55:30;;;;;;;6.53;3.10;;;;;;;20.35;28.08;95568.83;1822070;78;21511;-55
2021/05/05 11:57:59;;;;;;;6.87;3.10;;;;;;;20.25;27.81;95569.18;1822084;78;22254;-54
2021/05/05 12:00:33;;;;;;;;;;;;;;;20.17;28.14;95562.23;1821663;77;21175;-54
2021/05/05 12:03:06;;;;;;;5.53;2.83;;;;;;;20.20;28.69;95565.80;1829218;77;20481;-54
2021/05/05 12:05:41;;;;;;;3.90;2.58;;;;;;;20.32;28.81;95563.44;1849221;77;21061;-55